Webcam Richtung Westen

Webcam27

Webcam Richtung Norden

Webcam36

Webcam Richtung Osten

Webcam09

Wetter(Würzburg):
222200Z AUTO 01002G04KT 14KM FEW350 11/10 Q1022
		
Wed 23.10.2019, 22:00 UTC

Sichtweite bis zu 14 km
Wind aus 10° mit 02kt, in Böen bis zu 04kt
vereinzelte Wolken (1-2 Achtel) bei 35000 Fuß
Temperatur: 11 °C
Taupunkt: 10 °C
QNH: 1022 hPa
                         Heute        Morgen
                         23.10        24.10
--------------------------------------------
Beginn der Dämmerung     05:21        05:22
Sonnenaufgang            05:53        05:55
Sonnenuntergang          16:16        16:14
Ende der Dämmerung       16:49        16:47

Alle Zeiten in UTC